Time;durP1;ratioP1;P1;durP2;ratioP2;P2;SDS_P1;SDS_P2;PMS_P1;PMS_P2;Temp;Humidity;BMP_temperature;BMP_pressure;BME280_temperature;BME280_humidity;BME280_pressure;Samples;Min_cycle;Max_cycle;Signal;HPM_P1;HPM_P2
2021/12/05 00:17:39;;;;;;;5.00;1.40;;;1.70;99.90;;;;;;4862148;29;20072;-70
2021/12/05 00:22:32;;;;;;;5.05;1.25;;;1.80;99.90;;;;;;4862402;29;20504;-69
2021/12/05 00:25:01;;;;;;;4.13;2.08;;;1.70;99.90;;;;;;4858981;29;20057;-69
2021/12/05 00:27:34;;;;;;;6.63;1.33;;;1.70;99.90;;;;;;4870243;29;20061;-69
2021/12/05 00:30:31;;;;;;;6.47;1.10;;;1.70;99.90;;;;;;4862773;29;20300;-68
2021/12/05 00:48:56;;;;;;;3.50;1.10;;;1.50;99.90;;;;;;4861871;29;20084;-69
2021/12/05 00:57:26;;;;;;;2.63;1.35;;;1.50;99.90;;;;;;4874162;29;20572;-68
2021/12/05 00:59:53;;;;;;;4.70;1.45;;;1.50;99.90;;;;;;4865673;29;20071;-68
2021/12/05 01:16:28;;;;;;;8.52;1.17;;;1.40;99.90;;;;;;4879367;29;20527;-68
2021/12/05 01:18:57;;;;;;;7.70;1.60;;;1.40;99.90;;;;;;4875048;29;20148;-68
2021/12/05 01:21:25;;;;;;;2.80;1.30;;;1.40;99.90;;;;;;4879604;29;20168;-68
2021/12/05 01:24:01;;;;;;;7.72;1.98;;;1.30;99.90;;;;;;4878839;29;20056;-68
2021/12/05 01:26:49;;;;;;;5.50;1.70;;;1.30;99.90;;;;;;4863824;29;20481;-68
2021/12/05 01:32:19;;;;;;;7.15;1.52;;;1.30;99.90;;;;;;4879836;29;20049;-69
2021/12/05 01:37:30;;;;;;;4.78;1.33;;;1.20;99.90;;;;;;4879570;29;20168;-68
2021/12/05 01:40:13;;;;;;;5.10;1.23;;;1.30;99.90;;;;;;4864219;29;20121;-69
2021/12/05 01:48:43;;;;;;;14.95;1.65;;;1.20;99.90;;;;;;4879036;29;20049;-69
2021/12/05 01:53:44;;;;;;;11.75;1.88;;;1.20;99.90;;;;;;4865102;29;20049;-69
2021/12/05 02:15:08;;;;;;;3.40;1.48;;;1.30;99.90;;;;;;4878667;29;20113;-68
2021/12/05 02:42:33;;;;;;;4.32;1.58;;;1.40;99.90;;;;;;4878083;29;20495;-69
2021/12/05 02:45:06;;;;;;;3.17;1.30;;;1.40;99.90;;;;;;4863955;29;20079;-69
2021/12/05 02:47:34;;;;;;;2.28;1.30;;;1.40;99.90;;;;;;4862935;29;20144;-68
2021/12/05 02:50:07;;;;;;;3.05;1.48;;;1.40;99.90;;;;;;4876788;29;20312;-68
2021/12/05 02:52:39;;;;;;;1.42;1.27;;;1.30;99.90;;;;;;4850068;29;20049;-68
2021/12/05 02:55:39;;;;;;;8.02;1.63;;;1.30;99.90;;;;;;4863854;29;20507;-68
2021/12/05 02:58:22;;;;;;;6.13;1.30;;;1.30;99.90;;;;;;4868663;29;20045;-69
2021/12/05 03:01:09;;;;;;;2.95;1.23;;;1.30;99.90;;;;;;4863582;29;20064;-68
2021/12/05 03:03:38;;;;;;;2.33;1.23;;;1.30;99.90;;;;;;4878086;29;20156;-68
2021/12/05 03:06:28;;;;;;;1.33;1.20;;;1.30;99.90;;;;;;4860375;29;20053;-69
2021/12/05 03:08:58;;;;;;;8.18;1.55;;;1.30;99.90;;;;;;4858677;29;20063;-68
2021/12/05 03:11:27;;;;;;;3.00;1.42;;;1.30;99.90;;;;;;4863255;29;20045;-69
2021/12/05 03:13:53;;;;;;;5.05;1.40;;;1.30;99.90;;;;;;4862997;29;20049;-68
2021/12/05 03:16:26;;;;;;;2.45;0.85;;;1.30;99.90;;;;;;4861195;29;20307;-68
2021/12/05 03:18:54;;;;;;;3.78;1.52;;;1.30;99.90;;;;;;4859313;29;20046;-69
2021/12/05 03:21:22;;;;;;;6.38;1.20;;;1.30;99.90;;;;;;4860471;29;20536;-68
2021/12/05 03:23:50;;;;;;;4.65;0.88;;;1.30;99.90;;;;;;4861652;29;20133;-69
2021/12/05 03:26:21;;;;;;;4.07;1.58;;;1.30;99.90;;;;;;4868454;29;20055;-69
2021/12/05 03:28:50;;;;;;;1.13;0.82;;;1.30;99.90;;;;;;4877600;29;20108;-69
2021/12/05 03:31:18;;;;;;;2.60;0.93;;;1.30;99.90;;;;;;4861665;29;20108;-69
2021/12/05 03:33:49;;;;;;;2.03;0.85;;;1.40;99.90;;;;;;4860905;29;20124;-69
2021/12/05 03:36:17;;;;;;;3.42;1.25;;;1.30;99.90;;;;;;4863020;29;20044;-69
2021/12/05 03:38:46;;;;;;;4.00;1.08;;;1.30;99.90;;;;;;4876869;29;20184;-69
2021/12/05 03:41:15;;;;;;;4.40;0.95;;;1.30;99.90;;;;;;4876819;29;20128;-69
2021/12/05 03:43:47;;;;;;;5.60;2.85;;;1.30;99.90;;;;;;4861944;29;20109;-70
2021/12/05 03:46:15;;;;;;;2.83;1.05;;;1.30;99.90;;;;;;4863348;29;20041;-69
2021/12/05 03:48:46;;;;;;;4.75;1.33;;;1.30;99.90;;;;;;4863565;29;20055;-70
2021/12/05 03:51:16;;;;;;;4.43;0.95;;;1.30;99.90;;;;;;4876967;29;20564;-69
2021/12/05 03:53:47;;;;;;;6.05;1.38;;;1.30;99.90;;;;;;4861256;29;20053;-69
2021/12/05 03:56:16;;;;;;;4.40;1.63;;;1.30;99.90;;;;;;4861357;29;20141;-69
2021/12/05 03:58:44;;;;;;;1.42;0.88;;;1.30;99.90;;;;;;4845355;29;20056;-68
2021/12/05 04:01:13;;;;;;;1.63;0.82;;;1.30;99.90;;;;;;4862089;29;20064;-69
2021/12/05 04:03:45;;;;;;;2.97;0.85;;;1.30;99.90;;;;;;4860730;29;20052;-68
2021/12/05 04:06:15;;;;;;;3.78;1.20;;;1.30;99.90;;;;;;4860622;29;20136;-69
2021/12/05 04:08:43;;;;;;;5.55;1.20;;;1.30;99.90;;;;;;4876312;29;20063;-69
2021/12/05 04:11:22;;;;;;;1.58;0.90;;;1.20;99.90;;;;;;4860822;29;20105;-69
2021/12/05 04:13:50;;;;;;;2.85;1.30;;;1.20;99.90;;;;;;4868191;29;20833;-68
2021/12/05 04:16:18;;;;;;;5.68;1.23;;;1.20;99.90;;;;;;4876303;29;20432;-68
2021/12/05 04:18:46;;;;;;;6.45;1.08;;;1.20;99.90;;;;;;4862259;29;20108;-69
2021/12/05 04:21:15;;;;;;;2.90;1.30;;;1.20;99.90;;;;;;4875866;29;20088;-70
2021/12/05 04:23:43;;;;;;;5.38;1.30;;;1.20;99.90;;;;;;4865576;29;20052;-69
2021/12/05 04:26:13;;;;;;;7.10;1.77;;;1.20;99.90;;;;;;4860931;29;20065;-69
2021/12/05 04:28:40;;;;;;;2.97;1.00;;;1.20;99.90;;;;;;4876080;29;20069;-68
2021/12/05 04:31:10;;;;;;;3.50;0.73;;;1.20;99.90;;;;;;4861217;29;20049;-69
2021/12/05 04:33:39;;;;;;;4.00;1.17;;;1.20;99.90;;;;;;4861117;29;20037;-69
2021/12/05 04:36:08;;;;;;;6.22;1.15;;;1.30;99.90;;;;;;4876367;29;20080;-69
2021/12/05 04:38:35;;;;;;;2.42;0.98;;;1.30;99.90;;;;;;4860597;29;20045;-68
2021/12/05 04:41:03;;;;;;;7.53;0.93;;;1.30;99.90;;;;;;4861012;29;20049;-68
2021/12/05 04:43:37;;;;;;;2.92;0.95;;;1.30;99.90;;;;;;4875754;29;20121;-69
2021/12/05 04:46:11;;;;;;;6.32;1.02;;;1.30;99.90;;;;;;4864260;29;20101;-69
2021/12/05 04:48:43;;;;;;;2.28;1.23;;;1.30;99.90;;;;;;4879561;29;20557;-69
2021/12/05 04:51:10;;;;;;;4.15;1.20;;;1.40;99.90;;;;;;4865919;29;20539;-69
2021/12/05 04:53:37;;;;;;;3.38;1.00;;;1.40;99.90;;;;;;4879885;29;20547;-67
2021/12/05 04:56:05;;;;;;;2.38;0.80;;;1.40;99.90;;;;;;4880132;29;20033;-67
2021/12/05 04:58:32;;;;;;;4.18;1.00;;;1.40;99.90;;;;;;4865920;29;20052;-68
2021/12/05 05:01:00;;;;;;;3.65;1.00;;;1.40;99.90;;;;;;4864270;29;20051;-68
2021/12/05 05:03:28;;;;;;;10.95;2.30;;;1.30;99.90;;;;;;4866015;29;20048;-68
2021/12/05 05:06:29;;;;;;;7.38;1.40;;;1.30;99.90;;;;;;4864266;29;20060;-68
2021/12/05 05:08:52;;;;;;;3.28;1.40;;;1.30;99.90;;;;;;4864638;29;20685;-68
2021/12/05 05:11:21;;;;;;;3.63;1.08;;;1.20;99.90;;;;;;4865042;29;20053;-68
2021/12/05 05:13:49;;;;;;;5.20;1.15;;;1.20;99.90;;;;;;4865597;29;20081;-68
2021/12/05 05:16:17;;;;;;;4.22;1.08;;;1.20;99.90;;;;;;4864864;29;20403;-68
2021/12/05 05:18:53;;;;;;;2.15;0.88;;;1.10;99.90;;;;;;4865038;29;20072;-68
2021/12/05 05:22:02;;;;;;;3.15;1.13;;;1.10;99.90;;;;;;4878898;29;20456;-69
2021/12/05 05:30:40;;;;;;;10.95;1.50;;;1.00;99.90;;;;;;4864072;29;20061;-68
2021/12/05 05:39:19;;;;;;;5.30;0.80;;;0.90;99.90;;;;;;4865022;29;20082;-68
2021/12/05 05:44:33;;;;;;;4.03;1.20;;;0.80;99.90;;;;;;4864937;29;20511;-67
2021/12/05 05:49:47;;;;;;;3.25;1.30;;;0.80;99.90;;;;;;4864524;29;20059;-68
2021/12/05 05:52:15;;;;;;;2.78;0.95;;;0.80;99.90;;;;;;4853207;29;20053;-67
2021/12/05 05:54:46;;;;;;;3.55;1.30;;;0.80;99.90;;;;;;4864961;29;20081;-68
2021/12/05 05:58:01;;;;;;;5.82;1.20;;;0.70;99.90;;;;;;4850708;29;20052;-67
2021/12/05 06:00:15;;;;;;;5.70;1.00;;;0.70;99.90;;;;;;4859425;29;20409;-68
2021/12/05 06:05:32;;;;;;;5.50;0.95;;;0.70;99.90;;;;;;4864425;29;20064;-68
2021/12/05 06:07:59;;;;;;;5.18;0.95;;;0.70;99.90;;;;;;4864151;29;20056;-68
2021/12/05 06:10:28;;;;;;;2.72;1.00;;;0.60;99.90;;;;;;4864567;29;20049;-68
2021/12/05 06:12:55;;;;;;;6.38;1.75;;;0.60;99.90;;;;;;4851450;29;20731;-67
2021/12/05 06:15:25;;;;;;;7.57;1.65;;;0.60;99.90;;;;;;4864539;29;20052;-68
2021/12/05 06:17:53;;;;;;;5.28;0.90;;;0.60;99.90;;;;;;4863905;29;20419;-67
2021/12/05 06:20:24;;;;;;;13.18;2.35;;;0.50;99.90;;;;;;4863684;29;20049;-69
2021/12/05 06:22:51;;;;;;;6.05;1.80;;;0.50;99.90;;;;;;4863848;29;20104;-68
2021/12/05 06:25:25;;;;;;;5.47;1.23;;;0.50;99.90;;;;;;4864048;29;20231;-68
2021/12/05 06:27:56;;;;;;;3.80;0.95;;;0.40;99.90;;;;;;4864505;29;20109;-68
2021/12/05 06:41:20;;;;;;;4.68;0.98;;;0.30;99.90;;;;;;4863736;29;20056;-68
2021/12/05 06:46:22;;;;;;;7.22;1.30;;;0.40;99.90;;;;;;4863666;29;20060;-68
2021/12/05 06:48:53;;;;;;;3.70;1.45;;;0.30;99.90;;;;;;4863499;29;20072;-68
2021/12/05 06:51:23;;;;;;;12.48;4.15;;;0.30;99.90;;;;;;4864052;29;20507;-69
2021/12/05 06:53:51;;;;;;;4.18;1.67;;;0.30;99.90;;;;;;4863399;29;20105;-70
2021/12/05 06:56:18;;;;;;;4.85;1.88;;;0.40;99.90;;;;;;4863977;29;20041;-68
2021/12/05 06:58:45;;;;;;;6.47;3.50;;;0.40;99.90;;;;;;4862748;29;20109;-69
2021/12/05 07:01:13;;;;;;;11.48;1.90;;;0.40;99.90;;;;;;4877809;29;20060;-69
2021/12/05 07:03:44;;;;;;;4.03;1.30;;;0.40;99.90;;;;;;4863519;29;20048;-69
2021/12/05 07:06:29;;;;;;;6.97;1.65;;;0.40;99.90;;;;;;4863415;29;20474;-69
2021/12/05 07:09:05;;;;;;;7.20;2.00;;;0.40;99.90;;;;;;4862315;29;20072;-61
2021/12/05 07:11:43;;;;;;;8.50;2.85;;;0.40;99.90;;;;;;4863031;29;20044;-61
2021/12/05 07:17:03;;;;;;;10.32;2.75;;;0.40;99.90;;;;;;4862384;29;20156;-59
2021/12/05 07:19:59;;;;;;;7.97;3.17;;;0.50;99.90;;;;;;4862672;29;20116;-61
2021/12/05 07:22:23;;;;;;;7.18;1.95;;;0.50;99.90;;;;;;4862687;29;20504;-60
2021/12/05 07:25:00;;;;;;;8.90;1.85;;;0.50;99.90;;;;;;4849176;29;20045;-60
2021/12/05 07:44:12;;;;;;;7.25;2.25;;;0.70;99.90;;;;;;4863767;29;20173;-59
2021/12/05 07:46:38;;;;;;;4.07;1.25;;;0.70;99.90;;;;;;4862881;29;20052;-61
2021/12/05 07:49:09;;;;;;;9.07;2.38;;;0.70;99.90;;;;;;4862242;29;20063;-60
2021/12/05 07:51:41;;;;;;;6.30;1.35;;;0.70;99.90;;;;;;4862298;29;20310;-60
2021/12/05 07:57:15;;;;;;;6.55;1.67;;;0.70;99.90;;;;;;4861936;29;20397;-60
2021/12/05 08:16:07;;;;;;;11.55;3.38;;;0.90;99.90;;;;;;4862177;29;20041;-58
2021/12/05 08:18:39;;;;;;;23.60;8.93;;;0.90;99.90;;;;;;4861939;29;20119;-59
2021/12/05 08:21:07;;;;;;;34.35;13.90;;;0.90;99.90;;;;;;4863812;29;20072;-59
2021/12/05 08:23:34;;;;;;;31.17;12.63;;;1.00;99.90;;;;;;4866102;29;20232;-59
2021/12/05 08:26:09;;;;;;;38.95;14.07;;;1.00;99.90;;;;;;4865252;29;20464;-58
2021/12/05 08:31:17;;;;;;;37.88;11.52;;;1.10;99.90;;;;;;4863860;29;20123;-59
2021/12/05 08:34:08;;;;;;;25.08;11.20;;;1.20;99.90;;;;;;4865427;29;20049;-59
2021/12/05 09:21:22;;;;;;;2.35;1.20;;;4.00;99.90;;;;;;4863974;29;20085;-57
2021/12/05 10:07:23;;;;;;;5.38;0.80;;;4.40;99.90;;;;;;4861381;29;20049;-57
2021/12/05 10:15:34;;;;;;;4.13;0.77;;;4.20;99.90;;;;;;4863663;29;20570;-57
2021/12/05 10:37:48;;;;;;;2.97;0.80;;;6.10;99.90;;;;;;4863591;29;20515;-56
2021/12/05 10:40:23;;;;;;;2.92;1.17;;;6.10;99.90;;;;;;4862504;29;20128;-56
2021/12/05 10:42:52;;;;;;;1.00;0.68;;;6.10;99.90;;;;;;4876811;29;20131;-56
2021/12/05 10:45:22;;;;;;;7.32;1.70;;;6.20;99.90;;;;;;4874795;29;20060;-56
2021/12/05 10:47:52;;;;;;;3.10;0.82;;;6.40;99.90;;;;;;4862426;29;20263;-56
2021/12/05 10:50:33;;;;;;;4.85;1.10;;;6.50;99.90;;;;;;4862182;29;20049;-56
2021/12/05 10:53:28;;;;;;;1.50;0.70;;;6.70;99.90;;;;;;4862696;29;20185;-57
2021/12/05 10:56:15;;;;;;;4.60;0.80;;;6.70;99.90;;;;;;4861210;29;20045;-56
2021/12/05 10:58:47;;;;;;;1.25;0.70;;;6.80;99.90;;;;;;4861008;29;20053;-54
2021/12/05 11:01:29;;;;;;;2.45;0.70;;;7.00;99.90;;;;;;4862445;29;20555;-55
2021/12/05 11:04:17;;;;;;;3.25;0.75;;;7.10;99.90;;;;;;4856754;29;20048;-55
2021/12/05 11:06:55;;;;;;;4.68;0.93;;;7.10;99.90;;;;;;4862838;29;20049;-55
2021/12/05 11:09:25;;;;;;;7.22;1.17;;;7.30;99.90;;;;;;4862184;29;20704;-56
2021/12/05 11:12:03;;;;;;;5.43;0.85;;;7.50;99.90;;;;;;4862891;29;20300;-56
2021/12/05 11:14:33;;;;;;;3.70;0.90;;;7.50;99.90;;;;;;4862088;29;20064;-55
2021/12/05 11:17:01;;;;;;;4.72;0.93;;;7.50;99.90;;;;;;4862721;29;20136;-56
2021/12/05 11:19:44;;;;;;;4.20;1.08;;;7.40;99.90;;;;;;4862189;29;20932;-55
2021/12/05 11:22:16;;;;;;;3.03;0.65;;;7.40;99.90;;;;;;4861980;29;20049;-55
2021/12/05 11:24:47;;;;;;;2.08;0.80;;;7.40;99.90;;;;;;4876763;29;20041;-55
2021/12/05 11:27:22;;;;;;;1.27;0.70;;;7.40;99.90;;;;;;4862295;29;20056;-55
2021/12/05 11:29:54;;;;;;;2.90;0.70;;;7.40;99.90;;;;;;4862038;29;20588;-55
2021/12/05 11:32:38;;;;;;;1.73;1.15;;;7.50;99.90;;;;;;4861988;29;20040;-55
2021/12/05 11:35:12;;;;;;;2.40;0.93;;;7.70;99.90;;;;;;4850186;29;20446;-55
2021/12/05 11:38:06;;;;;;;2.67;1.15;;;7.90;99.90;;;;;;4862391;29;20059;-55
2021/12/05 11:40:55;;;;;;;1.33;0.60;;;8.10;99.90;;;;;;4853066;29;20049;-55
2021/12/05 11:43:32;;;;;;;2.22;0.80;;;8.30;99.90;;;;;;4861728;29;20516;-55
2021/12/05 11:46:02;;;;;;;1.75;0.60;;;8.40;99.80;;;;;;4862080;29;20112;-55
2021/12/05 11:49:06;;;;;;;2.78;0.82;;;8.40;99.00;;;;;;4861679;29;20148;-56
2021/12/05 11:51:33;;;;;;;2.28;0.70;;;8.40;99.80;;;;;;4857924;29;20060;-56
2021/12/05 11:54:08;;;;;;;3.75;0.93;;;8.30;98.90;;;;;;4861574;29;20110;-55
2021/12/05 11:56:45;;;;;;;2.97;0.80;;;8.30;96.30;;;;;;4862124;29;20053;-55
2021/12/05 11:59:31;;;;;;;0.73;0.57;;;8.30;99.90;;;;;;4861451;29;20536;-56
2021/12/05 12:02:11;;;;;;;3.65;0.65;;;8.40;99.90;;;;;;4861483;29;20351;-57
2021/12/05 12:04:55;;;;;;;7.13;1.17;;;8.40;99.10;;;;;;4862623;29;20388;-56
2021/12/05 12:07:36;;;;;;;2.40;0.75;;;8.40;99.30;;;;;;4860110;29;20053;-57
2021/12/05 12:10:42;;;;;;;3.47;0.82;;;8.40;99.90;;;;;;4861630;29;20048;-58
2021/12/05 12:13:08;;;;;;;2.35;0.80;;;8.40;95.30;;;;;;4860844;29;20045;-56
2021/12/05 12:15:37;;;;;;;4.25;1.45;;;8.00;99.70;;;;;;4862038;29;20226;-57
2021/12/05 12:18:13;;;;;;;1.45;0.70;;;7.80;99.90;;;;;;4851295;29;20452;-57
2021/12/05 12:20:43;;;;;;;3.67;0.98;;;7.50;99.90;;;;;;4861556;29;20499;-56
2021/12/05 12:23:10;;;;;;;5.63;1.38;;;7.40;99.90;;;;;;4848909;29;20362;-56
2021/12/05 12:25:39;;;;;;;;;;;7.50;99.90;;;;;;4876758;29;20389;-56
2021/12/05 12:28:08;;;;;;;2.00;0.68;;;7.60;99.90;;;;;;4860998;29;20351;-57
2021/12/05 12:30:42;;;;;;;2.40;0.98;;;7.70;99.90;;;;;;4862261;29;20457;-56
2021/12/05 12:33:20;;;;;;;2.28;0.45;;;7.70;99.90;;;;;;4861137;29;20060;-57
2021/12/05 12:35:49;;;;;;;1.23;0.65;;;7.60;96.90;;;;;;4861118;29;20049;-56
2021/12/05 12:38:20;;;;;;;3.03;0.98;;;7.60;99.90;;;;;;4861393;29;20136;-57
2021/12/05 12:41:04;;;;;;;1.20;0.80;;;7.50;99.90;;;;;;4863029;29;20485;-57
2021/12/05 12:43:41;;;;;;;2.63;0.80;;;7.50;99.90;;;;;;4861590;29;20497;-56
2021/12/05 12:46:19;;;;;;;;;;;7.70;99.90;;;;;;4863412;29;20057;-56
2021/12/05 12:48:48;;;;;;;1.03;0.57;;;7.90;98.90;;;;;;4863150;29;19980;-56
2021/12/05 12:51:28;;;;;;;2.30;0.80;;;8.00;93.10;;;;;;4862248;29;20147;-56
2021/12/05 12:53:57;;;;;;;2.05;0.90;;;8.00;95.10;;;;;;4851163;29;20041;-55
2021/12/05 12:56:24;;;;;;;2.50;1.15;;;8.10;97.90;;;;;;4862363;29;20037;-56
2021/12/05 12:58:59;;;;;;;2.22;0.68;;;7.90;91.70;;;;;;4861514;29;21052;-55
2021/12/05 13:01:52;;;;;;;3.13;0.90;;;7.50;91.90;;;;;;4861740;29;20101;-55
2021/12/05 13:04:56;;;;;;;2.03;0.77;;;7.20;98.80;;;;;;4864365;29;20546;-54
2021/12/05 13:10:34;;;;;;;2.85;0.82;;;7.30;99.40;;;;;;4845695;29;20052;-55
2021/12/05 13:13:17;;;;;;;4.03;0.80;;;7.50;99.90;;;;;;4852828;29;20045;-53
2021/12/05 13:15:59;;;;;;;2.83;0.68;;;7.60;93.10;;;;;;4863144;29;20362;-56
2021/12/05 13:18:35;;;;;;;1.23;0.50;;;7.70;94.90;;;;;;4864232;29;20052;-57
2021/12/05 13:21:31;;;;;;;0.47;0.35;;;7.80;93.20;;;;;;4861502;29;20446;-54
2021/12/05 13:23:58;;;;;;;0.70;0.60;;;8.00;93.20;;;;;;4864870;29;20063;-56
2021/12/05 13:26:36;;;;;;;1.63;0.55;;;8.00;85.70;;;;;;4863557;29;20088;-54
2021/12/05 13:29:20;;;;;;;1.13;0.50;;;7.80;86.70;;;;;;4864170;29;20670;-56
2021/12/05 13:31:53;;;;;;;2.13;0.50;;;7.60;91.80;;;;;;4878321;29;20045;-56
2021/12/05 13:34:31;;;;;;;0.93;0.68;;;7.50;94.20;;;;;;4864301;29;20101;-56
2021/12/05 13:37:06;;;;;;;2.17;0.88;;;7.20;97.90;;;;;;4863903;29;20044;-56
2021/12/05 13:39:46;;;;;;;2.75;1.40;;;6.90;99.90;;;;;;4864237;29;20045;-60
2021/12/05 13:42:16;;;;;;;3.17;1.35;;;6.60;99.90;;;;;;4862193;29;20085;-56
2021/12/05 13:45:06;;;;;;;3.00;1.70;;;6.30;99.90;;;;;;4862693;29;20049;-55
2021/12/05 13:47:38;;;;;;;5.10;0.80;;;6.10;99.90;;;;;;4863813;29;20049;-54
2021/12/05 13:50:23;;;;;;;3.85;0.70;;;5.90;99.90;;;;;;4876893;29;20052;-55
2021/12/05 13:53:02;;;;;;;1.60;0.85;;;5.60;99.90;;;;;;4863877;29;20045;-56
2021/12/05 13:55:46;;;;;;;3.40;0.75;;;5.40;99.90;;;;;;4853837;29;20123;-55
2021/12/05 13:58:18;;;;;;;1.73;0.70;;;5.20;99.90;;;;;;4863327;29;20760;-55
2021/12/05 14:01:08;;;;;;;4.82;0.75;;;5.10;99.90;;;;;;4863992;29;20052;-55
2021/12/05 14:03:48;;;;;;;3.92;0.88;;;5.00;99.90;;;;;;4863682;29;20049;-55
2021/12/05 14:06:39;;;;;;;2.83;0.90;;;4.80;99.90;;;;;;4851684;29;20113;-55
2021/12/05 14:09:14;;;;;;;6.00;1.05;;;4.70;99.90;;;;;;4863546;29;20041;-55
2021/12/05 14:11:52;;;;;;;4.28;1.80;;;4.50;99.90;;;;;;4864828;29;20060;-56
2021/12/05 14:14:23;;;;;;;1.45;0.70;;;4.40;99.90;;;;;;4864009;29;20295;-55
2021/12/05 14:16:52;;;;;;;2.50;1.23;;;4.30;99.90;;;;;;4863048;29;20053;-55
2021/12/05 14:19:23;;;;;;;3.40;0.85;;;4.20;99.90;;;;;;4863610;29;20049;-55
2021/12/05 14:21:53;;;;;;;8.43;1.95;;;4.10;99.90;;;;;;4877404;29;20100;-57
2021/12/05 14:24:24;;;;;;;3.75;0.60;;;4.00;99.90;;;;;;4863617;29;20049;-56
2021/12/05 14:26:53;;;;;;;4.07;1.42;;;4.00;99.90;;;;;;4861940;29;20503;-56
2021/12/05 14:29:26;;;;;;;1.23;0.60;;;4.00;99.90;;;;;;4863076;29;20044;-56
2021/12/05 14:32:06;;;;;;;5.00;0.90;;;4.00;99.90;;;;;;4863716;29;20048;-55
2021/12/05 14:34:35;;;;;;;2.38;0.73;;;4.00;99.90;;;;;;4863028;29;20245;-55
2021/12/05 14:37:14;;;;;;;2.78;0.77;;;3.90;99.90;;;;;;4861637;29;20044;-55
2021/12/05 14:39:44;;;;;;;1.15;0.70;;;4.00;99.90;;;;;;4861347;29;20600;-55
2021/12/05 14:42:17;;;;;;;3.78;0.90;;;4.00;99.90;;;;;;4863482;29;20052;-54
2021/12/05 14:44:49;;;;;;;2.85;0.80;;;4.00;99.90;;;;;;4861350;29;20061;-54
2021/12/05 14:47:23;;;;;;;2.53;0.65;;;3.90;99.90;;;;;;4863633;29;20596;-54
2021/12/05 14:49:55;;;;;;;1.63;0.75;;;4.00;99.90;;;;;;4862480;29;20049;-55
2021/12/05 14:52:27;;;;;;;0.77;0.73;;;4.00;99.90;;;;;;4863135;29;20411;-54
2021/12/05 14:54:55;;;;;;;1.02;0.57;;;4.00;99.90;;;;;;4863370;29;20044;-67
2021/12/05 14:57:26;;;;;;;3.15;1.25;;;4.00;99.90;;;;;;4863293;29;20053;-65
2021/12/05 15:00:09;;;;;;;3.10;0.90;;;4.00;99.90;;;;;;4863452;29;20048;-67
2021/12/05 15:02:37;;;;;;;2.58;0.75;;;3.90;99.90;;;;;;4863714;29;20051;-65
2021/12/05 15:05:08;;;;;;;3.17;0.77;;;3.80;99.90;;;;;;4863038;29;20049;-65
2021/12/05 15:07:36;;;;;;;1.80;0.95;;;3.80;99.90;;;;;;4863377;29;20518;-65
2021/12/05 15:10:04;;;;;;;12.00;1.17;;;3.80;99.90;;;;;;4863548;29;20128;-64
2021/12/05 15:12:34;;;;;;;4.75;1.00;;;3.70;99.90;;;;;;4862359;29;20056;-64
2021/12/05 15:15:07;;;;;;;0.90;0.80;;;3.70;99.90;;;;;;4861356;29;20251;-65
2021/12/05 15:17:37;;;;;;;7.15;1.73;;;3.60;99.90;;;;;;4862067;29;20075;-66
2021/12/05 15:20:09;;;;;;;4.53;2.10;;;3.60;99.90;;;;;;4861873;29;20045;-67
2021/12/05 15:22:41;;;;;;;5.25;1.25;;;3.50;99.90;;;;;;4862970;29;20242;-65
2021/12/05 15:25:11;;;;;;;2.80;1.13;;;3.50;99.90;;;;;;4862546;29;20049;-66
2021/12/05 15:27:38;;;;;;;7.03;1.52;;;3.40;99.90;;;;;;4871747;29;20292;-66
2021/12/05 15:30:08;;;;;;;2.28;0.93;;;3.40;99.90;;;;;;4850797;29;20507;-66
2021/12/05 15:32:36;;;;;;;3.42;1.05;;;3.30;99.90;;;;;;4861718;29;20101;-64
2021/12/05 15:35:07;;;;;;;2.28;1.35;;;3.20;99.90;;;;;;4850179;29;20052;-65
2021/12/05 15:37:34;;;;;;;3.22;1.45;;;3.20;99.90;;;;;;4863548;29;20041;-66
2021/12/05 15:40:03;;;;;;;4.82;1.15;;;3.10;99.90;;;;;;4860551;29;20099;-66
2021/12/05 15:42:34;;;;;;;4.93;1.20;;;3.10;99.90;;;;;;4863057;29;20053;-67
2021/12/05 15:45:07;;;;;;;2.20;0.98;;;3.00;99.90;;;;;;4863288;29;20146;-66
2021/12/05 15:47:36;;;;;;;2.30;1.13;;;3.00;99.90;;;;;;4862180;29;20691;-64
2021/12/05 15:50:12;;;;;;;1.88;0.90;;;3.00;99.90;;;;;;4862549;29;20044;-65
2021/12/05 15:52:43;;;;;;;5.30;1.17;;;2.90;99.90;;;;;;4862771;29;20623;-66
2021/12/05 15:55:15;;;;;;;9.25;0.93;;;2.80;99.90;;;;;;4862585;29;20053;-66
2021/12/05 15:57:47;;;;;;;5.35;1.50;;;2.80;99.90;;;;;;4864123;29;20578;-65
2021/12/05 16:00:24;;;;;;;6.97;1.15;;;2.70;99.90;;;;;;4863271;29;20052;-65
2021/12/05 16:02:59;;;;;;;4.55;1.50;;;2.60;99.90;;;;;;4862896;29;20057;-64
2021/12/05 16:05:27;;;;;;;1.98;0.90;;;2.60;99.90;;;;;;4861917;29;20156;-65
2021/12/05 16:08:05;;;;;;;2.55;1.40;;;2.50;99.90;;;;;;4862713;29;20104;-66
2021/12/05 16:10:38;;;;;;;2.63;1.05;;;2.50;99.90;;;;;;4860284;29;20139;-64
2021/12/05 16:13:18;;;;;;;3.13;1.33;;;2.40;99.90;;;;;;4863517;29;20153;-65
2021/12/05 16:15:50;;;;;;;2.78;1.40;;;2.40;99.90;;;;;;4863477;29;20056;-65
2021/12/05 16:18:19;;;;;;;3.47;1.00;;;2.30;99.90;;;;;;4863137;29;20639;-65
2021/12/05 16:20:53;;;;;;;6.45;1.60;;;2.30;99.90;;;;;;4862706;29;20049;-65
2021/12/05 16:23:22;;;;;;;3.88;1.27;;;2.30;99.90;;;;;;4863919;29;20132;-65
2021/12/05 16:26:13;;;;;;;4.55;1.27;;;2.20;99.90;;;;;;4863486;29;20068;-65
2021/12/05 16:28:59;;;;;;;6.78;1.65;;;2.20;99.90;;;;;;4863649;29;20055;-66
2021/12/05 16:31:30;;;;;;;2.70;0.98;;;2.10;99.90;;;;;;4863161;29;20061;-65
2021/12/05 16:34:09;;;;;;;6.43;1.40;;;2.10;99.90;;;;;;4862104;29;20555;-65
2021/12/05 16:36:47;;;;;;;7.80;1.67;;;2.00;99.90;;;;;;4861950;29;20045;-64
2021/12/05 16:39:17;;;;;;;7.72;2.80;;;2.00;99.90;;;;;;4861663;29;20041;-65
2021/12/05 16:41:50;;;;;;;5.82;1.45;;;1.90;99.90;;;;;;4864050;29;20052;-65
2021/12/05 16:44:21;;;;;;;14.68;1.65;;;1.90;99.90;;;;;;4865816;29;20053;-66
2021/12/05 16:46:49;;;;;;;9.57;1.40;;;1.80;99.90;;;;;;4865067;29;20045;-68
2021/12/05 16:49:25;;;;;;;3.83;1.35;;;1.80;99.90;;;;;;4865252;29;20049;-67
2021/12/05 16:52:19;;;;;;;3.40;1.17;;;1.70;99.90;;;;;;4864545;29;20052;-66
2021/12/05 16:54:59;;;;;;;2.47;1.00;;;1.70;99.90;;;;;;4865669;29;20176;-65
2021/12/05 16:57:32;;;;;;;4.10;2.38;;;1.70;99.90;;;;;;4866201;29;20673;-67
2021/12/05 17:00:04;;;;;;;2.83;1.27;;;1.60;99.90;;;;;;4865710;29;20305;-65
2021/12/05 17:02:36;;;;;;;3.47;1.20;;;1.60;99.90;;;;;;4880179;29;20168;-65
2021/12/05 17:05:14;;;;;;;5.40;1.58;;;1.60;99.90;;;;;;4866113;29;20049;-66
2021/12/05 17:08:11;;;;;;;6.20;1.70;;;1.60;99.90;;;;;;4865341;29;20053;-66
2021/12/05 17:10:49;;;;;;;3.10;1.58;;;1.60;99.90;;;;;;4879492;29;20073;-67
2021/12/05 17:13:37;;;;;;;8.93;3.00;;;1.60;99.90;;;;;;4864714;29;20071;-65
2021/12/05 17:16:18;;;;;;;8.25;2.17;;;1.70;99.90;;;;;;4863989;29;20048;-66
2021/12/05 17:18:57;;;;;;;5.10;2.03;;;1.70;99.90;;;;;;4864965;29;20055;-66
2021/12/05 17:21:30;;;;;;;4.53;2.00;;;1.80;99.90;;;;;;4865662;29;20076;-66
2021/12/05 17:23:59;;;;;;;4.80;2.10;;;1.80;99.90;;;;;;4864804;29;20470;-65
2021/12/05 17:26:34;;;;;;;8.68;1.98;;;1.80;99.90;;;;;;4865405;29;20053;-65
2021/12/05 17:29:08;;;;;;;5.65;1.80;;;1.80;99.90;;;;;;4865208;29;20390;-64
2021/12/05 17:31:38;;;;;;;3.05;1.52;;;1.80;99.90;;;;;;4865459;29;20048;-67
2021/12/05 17:34:12;;;;;;;4.05;1.77;;;1.80;99.90;;;;;;4865730;29;20071;-64
2021/12/05 17:36:44;;;;;;;3.58;2.00;;;1.80;99.90;;;;;;4864740;29;20508;-64
2021/12/05 17:39:19;;;;;;;2.17;1.70;;;1.70;99.90;;;;;;4864322;29;20056;-64
2021/12/05 17:41:52;;;;;;;1.30;1.10;;;1.70;99.90;;;;;;4864283;29;20033;-64
2021/12/05 17:44:20;;;;;;;1.60;1.30;;;1.70;99.90;;;;;;4863778;29;20469;-63
2021/12/05 17:46:53;;;;;;;2.42;1.50;;;1.60;99.90;;;;;;4864417;29;20105;-64
2021/12/05 17:49:25;;;;;;;2.25;1.40;;;1.60;99.90;;;;;;4864523;29;20049;-64
2021/12/05 17:51:54;;;;;;;2.53;0.95;;;1.60;99.90;;;;;;4864174;29;20048;-64
2021/12/05 17:54:29;;;;;;;3.25;1.40;;;1.50;99.90;;;;;;4864535;29;20057;-64
2021/12/05 17:57:04;;;;;;;1.25;1.15;;;1.50;99.90;;;;;;4864803;29;20432;-64
2021/12/05 17:59:50;;;;;;;2.05;0.95;;;1.50;99.90;;;;;;4864496;29;20045;-64
2021/12/05 18:05:21;;;;;;;0.55;0.55;;;1.40;99.90;;;;;;4864000;29;20132;-64
2021/12/05 18:07:52;;;;;;;2.17;0.90;;;1.40;99.90;;;;;;4863305;29;20057;-64
2021/12/05 18:10:25;;;;;;;1.08;0.98;;;1.40;99.90;;;;;;4864110;29;20094;-65
2021/12/05 18:12:57;;;;;;;1.42;0.70;;;1.40;99.90;;;;;;4877552;29;20048;-66
2021/12/05 18:15:49;;;;;;;0.90;0.90;;;1.40;99.90;;;;;;4864169;29;20444;-65
2021/12/05 18:18:16;;;;;;;3.03;1.30;;;1.40;99.90;;;;;;4864781;29;20113;-65
2021/12/05 18:20:44;;;;;;;1.17;1.08;;;1.40;99.90;;;;;;4863486;29;20049;-66
2021/12/05 18:23:11;;;;;;;5.75;2.10;;;1.40;99.90;;;;;;4866431;29;20048;-66
2021/12/05 18:25:39;;;;;;;5.40;2.25;;;1.40;99.90;;;;;;4865714;29;20117;-65
2021/12/05 18:28:09;;;;;;;8.00;1.80;;;1.30;99.90;;;;;;4865561;29;20052;-65
2021/12/05 18:30:38;;;;;;;3.30;1.83;;;1.30;99.90;;;;;;4865840;29;20056;-66
2021/12/05 18:33:08;;;;;;;3.70;2.10;;;1.30;99.90;;;;;;4865253;29;20056;-66
2021/12/05 18:35:36;;;;;;;2.65;2.25;;;1.30;99.90;;;;;;4865148;29;20375;-66
2021/12/05 18:38:07;;;;;;;3.35;2.13;;;1.30;99.90;;;;;;4862691;29;20348;-66
2021/12/05 18:40:38;;;;;;;3.75;2.72;;;1.30;99.90;;;;;;4865873;29;20568;-72